Val Marie, Canada
Current Conditions -  °F | °C
As of 9:00 AM on Saturday 25 Oct 2014 (Local Time) from CYYN Reporting Station
Scattered Clouds Scattered Clouds  
Wind Chill: 33°   Ceiling: Unl
Heat Index: 37°   Visibility: 9mi
Dew Point: 28°   Wind: 6mph
Humidity: 70%   Direction: 220°SW
Pressure: 30.04"   Gusts: NA
Location:  49.23°N, 107.73°W
Report Text: CYYN 251500Z AUTO 22005KT 9SM SCT110 SCT130 SCT230 03/M02 A3004 RMK SLP200
Loading
Personal Weather Stations






























Interactive Weather Map
Tropical Storm Tracking
New forecast layout! Learn more

10-Day Weather Forecast

Advertisements
Track Severe Weather on mobile